PWSweather.com
Personal Weather Stations
Station Observations
MORSE1
Massachusetts, West Townsend, MA 01474

MassachusettsWest Townsend, MA 01474

Lat: 42.676, Lon: -71.749

Elevation: 335

Station Type: Rainwise Mk III

Latest ConditionsUpdated 12:54:00 PM EDT Sunday, Sep 23, 2018
Currently Today's Max Today's Min Today's Average
Temperature 62.0°F16.7°C 66.0°F18.9°C 41.0°F5.0°C 47.1°F8.4°C
Dew Point 51.7°F10.9°C 54.8°F12.7°C 39.9°F4.4°C 44.0°F6.7°C
Winds 0.3 mph SSW0.5 kmh SSW 1.6 mph -2.6 kmh - - 0.1 mph 0.2 kmh
Wind Gusts 1.3 mph2.1 kmh 3.0 mph4.8 kmh - -
Humidity 69% 98% 58% 90%
Pressure 30.27 in1025.1 mb 30.30 in1026.1 mb 30.25 in1024.4 mb -
Hour Temp Dew Point Humidity Winds Wind Gusts Pressure Precip Precip Rate Daily Precip Total
12:54 PM 62.0°F16.7°C 51.7°F10.9°C 69% 0.3 mph SSW0.5 kmh SSW 1.3 mph2.1 kmh 30.27 in1025.1 mb 0.00 in0.0 mm 0.00 in0.0 mm 0.00 in0.0 mm
12:49 PM 62.0°F16.7°C 51.7°F10.9°C 69% 0.5 mph WNW0.8 kmh WNW 1.0 mph1.6 kmh 30.27 in1025.1 mb 0.00 in0.0 mm 0.00 in0.0 mm 0.00 in0.0 mm
12:44 PM 63.0°F17.2°C 52.7°F11.5°C 69% Calm Calm -- 30.26 in1024.7 mb 0.00 in0.0 mm 0.00 in0.0 mm 0.00 in0.0 mm
12:39 PM 62.9°F17.2°C 52.2°F11.2°C 68% Calm Calm -- 30.26 in1024.7 mb 0.00 in0.0 mm 0.00 in0.0 mm 0.00 in0.0 mm
12:34 PM 62.0°F16.7°C 50.1°F10.1°C 65% Calm Calm -- 30.27 in1025.1 mb 0.00 in0.0 mm 0.00 in0.0 mm 0.00 in0.0 mm
12:29 PM 62.0°F16.7°C 49.7°F9.8°C 64% Calm Calm -- 30.27 in1025.1 mb 0.00 in0.0 mm 0.00 in0.0 mm 0.00 in0.0 mm
12:24 PM 62.0°F16.7°C 50.1°F10.1°C 65% 0.2 mph SSW0.3 kmh SSW 0.5 mph0.8 kmh 30.27 in1025.1 mb 0.00 in0.0 mm 0.00 in0.0 mm 0.00 in0.0 mm
12:19 PM 62.0°F16.7°C 50.1°F10.1°C 65% 0.4 mph ESE0.6 kmh ESE 1.0 mph1.6 kmh 30.27 in1025.1 mb 0.00 in0.0 mm 0.00 in0.0 mm 0.00 in0.0 mm
12:14 PM 63.0°F17.2°C 51.0°F10.6°C 65% 0.7 mph SSE1.1 kmh SSE 2.0 mph3.2 kmh 30.27 in1025.1 mb 0.00 in0.0 mm 0.00 in0.0 mm 0.00 in0.0 mm
12:09 PM 63.0°F17.2°C 50.6°F10.3°C 64% 0.4 mph ESE0.6 kmh ESE 1.0 mph1.6 kmh 30.28 in1025.4 mb 0.00 in0.0 mm 0.00 in0.0 mm 0.00 in0.0 mm
12:04 PM 64.0°F17.8°C 50.7°F10.4°C 62% 0.6 mph ESE1.0 kmh ESE 1.5 mph2.4 kmh 30.28 in1025.4 mb 0.00 in0.0 mm 0.00 in0.0 mm 0.00 in0.0 mm
11:59 AM 65.0°F18.3°C 50.3°F10.2°C 59% Calm Calm -- 30.28 in1025.4 mb 0.00 in0.0 mm 0.00 in0.0 mm 0.00 in0.0 mm
11:54 AM 66.0°F18.9°C 51.7°F10.9°C 60% Calm Calm 0.5 mph0.8 kmh 30.28 in1025.4 mb 0.00 in0.0 mm 0.00 in0.0 mm 0.00 in0.0 mm
11:49 AM 66.0°F18.9°C 52.2°F11.2°C 61% 0.3 mph SSW0.5 kmh SSW 0.5 mph0.8 kmh 30.28 in1025.4 mb 0.00 in0.0 mm 0.00 in0.0 mm 0.00 in0.0 mm
11:44 AM 66.0°F18.9°C 51.7°F10.9°C 60% 0.5 mph NNE0.8 kmh NNE 1.3 mph2.1 kmh 30.28 in1025.4 mb 0.00 in0.0 mm 0.00 in0.0 mm 0.00 in0.0 mm
11:39 AM 66.0°F18.9°C 52.2°F11.2°C 61% 0.9 mph NE1.4 kmh NE 1.8 mph2.9 kmh 30.28 in1025.4 mb 0.00 in0.0 mm 0.00 in0.0 mm 0.00 in0.0 mm
11:34 AM 65.0°F18.3°C 50.3°F10.2°C 59% 0.1 mph SSW0.2 kmh SSW 0.5 mph0.8 kmh 30.28 in1025.4 mb 0.00 in0.0 mm 0.00 in0.0 mm 0.00 in0.0 mm
11:29 AM 65.0°F18.3°C 49.9°F9.9°C 58% Calm Calm -- 30.28 in1025.4 mb 0.00 in0.0 mm 0.00 in0.0 mm 0.00 in0.0 mm
11:24 AM 65.0°F18.3°C 51.7°F10.9°C 62% 0.5 mph SSW0.8 kmh SSW 1.3 mph2.1 kmh 30.28 in1025.4 mb 0.00 in0.0 mm 0.00 in0.0 mm 0.00 in0.0 mm
11:19 AM 66.0°F18.9°C 53.9°F12.2°C 65% Calm Calm -- 30.28 in1025.4 mb 0.00 in0.0 mm 0.00 in0.0 mm 0.00 in0.0 mm
11:14 AM 65.0°F18.3°C 52.9°F11.6°C 65% Calm Calm -- 30.28 in1025.4 mb 0.00 in0.0 mm 0.00 in0.0 mm 0.00 in0.0 mm
11:09 AM 64.0°F17.8°C 52.0°F11.1°C 65% 0.2 mph NNW0.3 kmh NNW 0.5 mph0.8 kmh 30.28 in1025.4 mb 0.00 in0.0 mm 0.00 in0.0 mm 0.00 in0.0 mm
11:04 AM 64.0°F17.8°C 52.8°F11.6°C 67% 1.6 mph NNW2.6 kmh NNW 3.0 mph4.8 kmh 30.29 in1025.7 mb 0.00 in0.0 mm 0.00 in0.0 mm 0.00 in0.0 mm
10:59 AM 63.0°F17.2°C 53.8°F12.1°C 72% 1.1 mph SE1.8 kmh SE 2.5 mph4.0 kmh 30.30 in1026.1 mb 0.00 in0.0 mm 0.00 in0.0 mm 0.00 in0.0 mm
10:54 AM 62.9°F17.2°C 53.3°F11.8°C 71% Calm Calm 0.3 mph0.5 kmh 30.30 in1026.1 mb 0.00 in0.0 mm 0.00 in0.0 mm 0.00 in0.0 mm
10:49 AM 62.0°F16.7°C 52.5°F11.4°C 71% Calm Calm -- 30.30 in1026.1 mb 0.00 in0.0 mm 0.00 in0.0 mm 0.00 in0.0 mm
10:44 AM 62.0°F16.7°C 54.3°F12.4°C 76% 0.7 mph NE1.1 kmh NE 1.3 mph2.1 kmh 30.30 in1026.1 mb 0.00 in0.0 mm 0.00 in0.0 mm 0.00 in0.0 mm
10:39 AM 61.0°F16.1°C 54.8°F12.7°C 80% 0.9 mph ENE1.4 kmh ENE 2.0 mph3.2 kmh 30.30 in1026.1 mb 0.00 in0.0 mm 0.00 in0.0 mm 0.00 in0.0 mm
10:34 AM 59.9°F15.5°C 54.7°F12.6°C 83% Calm Calm -- 30.30 in1026.1 mb 0.00 in0.0 mm 0.00 in0.0 mm 0.00 in0.0 mm
10:29 AM 57.9°F14.4°C 53.4°F11.9°C 85% Calm Calm -- 30.30 in1026.1 mb 0.00 in0.0 mm 0.00 in0.0 mm 0.00 in0.0 mm
10:24 AM 56.0°F13.3°C 52.2°F11.2°C 87% Calm Calm -- 30.30 in1026.1 mb 0.00 in0.0 mm 0.00 in0.0 mm 0.00 in0.0 mm
10:19 AM 55.0°F12.8°C 51.5°F10.8°C 88% Calm Calm -- 30.30 in1026.1 mb 0.00 in0.0 mm 0.00 in0.0 mm 0.00 in0.0 mm
10:14 AM 54.0°F12.2°C 50.5°F10.3°C 88% Calm Calm -- 30.30 in1026.1 mb 0.00 in0.0 mm 0.00 in0.0 mm 0.00 in0.0 mm
10:09 AM 53.9°F12.2°C 50.7°F10.4°C 89% Calm Calm -- 30.30 in1026.1 mb 0.00 in0.0 mm 0.00 in0.0 mm 0.00 in0.0 mm
10:04 AM 53.0°F11.7°C 50.4°F10.2°C 91% 0.1 mph NNW0.2 kmh NNW 0.3 mph0.5 kmh 30.30 in1026.1 mb 0.00 in0.0 mm 0.00 in0.0 mm 0.00 in0.0 mm
09:59 AM 52.0°F11.1°C 50.0°F10.0°C 93% Calm Calm -- 30.30 in1026.1 mb 0.00 in0.0 mm 0.00 in0.0 mm 0.00 in0.0 mm
09:54 AM 52.0°F11.1°C 50.3°F10.2°C 94% Calm Calm -- 30.30 in1026.1 mb 0.00 in0.0 mm 0.00 in0.0 mm 0.00 in0.0 mm
09:49 AM 51.0°F10.6°C 49.6°F9.8°C 95% 0.3 mph N0.5 kmh N 0.5 mph0.8 kmh 30.30 in1026.1 mb 0.00 in0.0 mm 0.00 in0.0 mm 0.00 in0.0 mm
09:44 AM 51.0°F10.6°C 49.9°F9.9°C 96% Calm Calm -- 30.30 in1026.1 mb 0.00 in0.0 mm 0.00 in0.0 mm 0.00 in0.0 mm
09:39 AM 50.0°F10.0°C 48.9°F9.4°C 96% Calm Calm -- 30.30 in1026.1 mb 0.00 in0.0 mm 0.00 in0.0 mm 0.00 in0.0 mm
09:34 AM 49.9°F9.9°C 49.1°F9.5°C 97% Calm Calm -- 30.30 in1026.1 mb 0.00 in0.0 mm 0.00 in0.0 mm 0.00 in0.0 mm
09:29 AM 49.0°F9.4°C 48.2°F9.0°C 97% Calm Calm -- 30.30 in1026.1 mb 0.00 in0.0 mm 0.00 in0.0 mm 0.00 in0.0 mm
09:24 AM 48.0°F8.9°C 47.2°F8.4°C 97% Calm Calm -- 30.30 in1026.1 mb 0.00 in0.0 mm 0.00 in0.0 mm 0.00 in0.0 mm
09:19 AM 48.0°F8.9°C 47.5°F8.6°C 98% Calm Calm -- 30.30 in1026.1 mb 0.00 in0.0 mm 0.00 in0.0 mm 0.00 in0.0 mm
09:14 AM 47.0°F8.3°C 46.5°F8.1°C 98% Calm Calm -- 30.30 in1026.1 mb 0.00 in0.0 mm 0.00 in0.0 mm 0.00 in0.0 mm
09:09 AM 47.0°F8.3°C 46.5°F8.1°C 98% Calm Calm -- 30.29 in1025.7 mb 0.00 in0.0 mm 0.00 in0.0 mm 0.00 in0.0 mm
09:04 AM 46.0°F7.8°C 45.5°F7.5°C 98% Calm Calm -- 30.29 in1025.7 mb 0.00 in0.0 mm 0.00 in0.0 mm 0.00 in0.0 mm
08:59 AM 46.0°F7.8°C 45.5°F7.5°C 98% Calm Calm -- 30.29 in1025.7 mb 0.00 in0.0 mm 0.00 in0.0 mm 0.00 in0.0 mm
08:54 AM 45.0°F7.2°C 44.5°F6.9°C 98% Calm Calm -- 30.29 in1025.7 mb 0.00 in0.0 mm 0.00 in0.0 mm 0.00 in0.0 mm
08:49 AM 44.9°F7.2°C 44.4°F6.9°C 98% Calm Calm -- 30.28 in1025.4 mb 0.00 in0.0 mm 0.00 in0.0 mm 0.00 in0.0 mm
08:44 AM 44.0°F6.7°C 43.5°F6.4°C 98% Calm Calm -- 30.28 in1025.4 mb 0.00 in0.0 mm 0.00 in0.0 mm 0.00 in0.0 mm
08:39 AM 43.9°F6.6°C 43.4°F6.3°C 98% Calm Calm -- 30.28 in1025.4 mb 0.00 in0.0 mm 0.00 in0.0 mm 0.00 in0.0 mm
08:34 AM 43.0°F6.1°C 42.5°F5.8°C 98% Calm Calm -- 30.28 in1025.4 mb 0.00 in0.0 mm 0.00 in0.0 mm 0.00 in0.0 mm
08:29 AM 43.0°F6.1°C 42.5°F5.8°C 98% Calm Calm -- 30.28 in1025.4 mb 0.00 in0.0 mm 0.00 in0.0 mm 0.00 in0.0 mm
08:24 AM 42.0°F5.6°C 41.5°F5.3°C 98% Calm Calm -- 30.28 in1025.4 mb 0.00 in0.0 mm 0.00 in0.0 mm 0.00 in0.0 mm
08:19 AM 42.0°F5.6°C 41.5°F5.3°C 98% Calm Calm -- 30.28 in1025.4 mb 0.00 in0.0 mm 0.00 in0.0 mm 0.00 in0.0 mm
08:14 AM 42.0°F5.6°C 41.5°F5.3°C 98% Calm Calm -- 30.28 in1025.4 mb 0.00 in0.0 mm 0.00 in0.0 mm 0.00 in0.0 mm
08:09 AM 41.0°F5.0°C 40.2°F4.6°C 97% Calm Calm -- 30.28 in1025.4 mb 0.00 in0.0 mm 0.00 in0.0 mm 0.00 in0.0 mm
08:04 AM 41.0°F5.0°C 40.2°F4.6°C 97% Calm Calm -- 30.28 in1025.4 mb 0.00 in0.0 mm 0.00 in0.0 mm 0.00 in0.0 mm
07:59 AM 41.0°F5.0°C 40.2°F4.6°C 97% Calm Calm -- 30.28 in1025.4 mb 0.00 in0.0 mm 0.00 in0.0 mm 0.00 in0.0 mm
07:54 AM 41.0°F5.0°C 40.2°F4.6°C 97% Calm Calm -- 30.28 in1025.4 mb 0.00 in0.0 mm 0.00 in0.0 mm 0.00 in0.0 mm
07:49 AM 41.0°F5.0°C 40.2°F4.6°C 97% Calm Calm -- 30.28 in1025.4 mb 0.00 in0.0 mm 0.00 in0.0 mm 0.00 in0.0 mm
07:44 AM 41.0°F5.0°C 40.2°F4.6°C 97% Calm Calm -- 30.28 in1025.4 mb 0.00 in0.0 mm 0.00 in0.0 mm 0.00 in0.0 mm
07:39 AM 41.0°F5.0°C 40.2°F4.6°C 97% Calm Calm -- 30.28 in1025.4 mb 0.00 in0.0 mm 0.00 in0.0 mm 0.00 in0.0 mm
07:34 AM 41.0°F5.0°C 40.2°F4.6°C 97% Calm Calm -- 30.28 in1025.4 mb 0.00 in0.0 mm 0.00 in0.0 mm 0.00 in0.0 mm
07:29 AM 41.0°F5.0°C 40.2°F4.6°C 97% Calm Calm -- 30.28 in1025.4 mb 0.00 in0.0 mm 0.00 in0.0 mm 0.00 in0.0 mm
07:24 AM 41.0°F5.0°C 40.2°F4.6°C 97% Calm Calm -- 30.28 in1025.4 mb 0.00 in0.0 mm 0.00 in0.0 mm 0.00 in0.0 mm
07:19 AM 41.0°F5.0°C 40.2°F4.6°C 97% Calm Calm -- 30.28 in1025.4 mb 0.00 in0.0 mm 0.00 in0.0 mm 0.00 in0.0 mm
07:14 AM 41.0°F5.0°C 40.2°F4.6°C 97% Calm Calm -- 30.27 in1025.1 mb 0.00 in0.0 mm 0.00 in0.0 mm 0.00 in0.0 mm
07:09 AM 41.0°F5.0°C 40.2°F4.6°C 97% Calm Calm -- 30.27 in1025.1 mb 0.00 in0.0 mm 0.00 in0.0 mm 0.00 in0.0 mm
07:04 AM 41.0°F5.0°C 40.2°F4.6°C 97% Calm Calm -- 30.27 in1025.1 mb 0.00 in0.0 mm 0.00 in0.0 mm 0.00 in0.0 mm
06:59 AM 41.0°F5.0°C 40.2°F4.6°C 97% Calm Calm -- 30.27 in1025.1 mb 0.00 in0.0 mm 0.00 in0.0 mm 0.00 in0.0 mm
06:54 AM 41.0°F5.0°C 40.2°F4.6°C 97% Calm Calm -- 30.26 in1024.7 mb 0.00 in0.0 mm 0.00 in0.0 mm 0.00 in0.0 mm
06:49 AM 41.0°F5.0°C 40.2°F4.6°C 97% Calm Calm -- 30.27 in1025.1 mb 0.00 in0.0 mm 0.00 in0.0 mm 0.00 in0.0 mm
06:44 AM 41.0°F5.0°C 40.2°F4.6°C 97% Calm Calm -- 30.26 in1024.7 mb 0.00 in0.0 mm 0.00 in0.0 mm 0.00 in0.0 mm
06:39 AM 41.0°F5.0°C 40.2°F4.6°C 97% Calm Calm -- 30.27 in1025.1 mb 0.00 in0.0 mm 0.00 in0.0 mm 0.00 in0.0 mm
06:34 AM 41.0°F5.0°C 40.2°F4.6°C 97% Calm Calm -- 30.27 in1025.1 mb 0.00 in0.0 mm 0.00 in0.0 mm 0.00 in0.0 mm
06:29 AM 41.0°F5.0°C 40.2°F4.6°C 97% Calm Calm -- 30.27 in1025.1 mb 0.00 in0.0 mm 0.00 in0.0 mm 0.00 in0.0 mm
06:24 AM 41.0°F5.0°C 40.2°F4.6°C 97% Calm Calm -- 30.27 in1025.1 mb 0.00 in0.0 mm 0.00 in0.0 mm 0.00 in0.0 mm
06:19 AM 41.0°F5.0°C 40.2°F4.6°C 97% Calm Calm -- 30.27 in1025.1 mb 0.00 in0.0 mm 0.00 in0.0 mm 0.00 in0.0 mm
06:14 AM 41.0°F5.0°C 40.2°F4.6°C 97% Calm Calm -- 30.27 in1025.1 mb 0.00 in0.0 mm 0.00 in0.0 mm 0.00 in0.0 mm
06:09 AM 41.0°F5.0°C 40.2°F4.6°C 97% Calm Calm -- 30.28 in1025.4 mb 0.00 in0.0 mm 0.00 in0.0 mm 0.00 in0.0 mm
06:04 AM 41.0°F5.0°C 40.2°F4.6°C 97% Calm Calm -- 30.28 in1025.4 mb 0.00 in0.0 mm 0.00 in0.0 mm 0.00 in0.0 mm
05:59 AM 41.0°F5.0°C 40.2°F4.6°C 97% Calm Calm -- 30.28 in1025.4 mb 0.00 in0.0 mm 0.00 in0.0 mm 0.00 in0.0 mm
05:54 AM 41.0°F5.0°C 40.2°F4.6°C 97% Calm Calm -- 30.28 in1025.4 mb 0.00 in0.0 mm 0.00 in0.0 mm 0.00 in0.0 mm
05:49 AM 41.0°F5.0°C 40.2°F4.6°C 97% Calm Calm -- 30.28 in1025.4 mb 0.00 in0.0 mm 0.00 in0.0 mm 0.00 in0.0 mm
05:44 AM 41.0°F5.0°C 40.2°F4.6°C 97% Calm Calm -- 30.27 in1025.1 mb 0.00 in0.0 mm 0.00 in0.0 mm 0.00 in0.0 mm
05:39 AM 41.0°F5.0°C 40.2°F4.6°C 97% Calm Calm -- 30.27 in1025.1 mb 0.00 in0.0 mm 0.00 in0.0 mm 0.00 in0.0 mm
05:34 AM 41.0°F5.0°C 40.2°F4.6°C 97% Calm Calm -- 30.27 in1025.1 mb 0.00 in0.0 mm 0.00 in0.0 mm 0.00 in0.0 mm
05:29 AM 41.0°F5.0°C 40.2°F4.6°C 97% Calm Calm -- 30.27 in1025.1 mb 0.00 in0.0 mm 0.00 in0.0 mm 0.00 in0.0 mm
05:24 AM 41.0°F5.0°C 40.2°F4.6°C 97% Calm Calm -- 30.27 in1025.1 mb 0.00 in0.0 mm 0.00 in0.0 mm 0.00 in0.0 mm
05:19 AM 41.0°F5.0°C 40.2°F4.6°C 97% Calm Calm -- 30.27 in1025.1 mb 0.00 in0.0 mm 0.00 in0.0 mm 0.00 in0.0 mm
05:14 AM 41.0°F5.0°C 40.2°F4.6°C 97% Calm Calm -- 30.26 in1024.7 mb 0.00 in0.0 mm 0.00 in0.0 mm 0.00 in0.0 mm
05:09 AM 41.0°F5.0°C 40.2°F4.6°C 97% Calm Calm -- 30.27 in1025.1 mb 0.00 in0.0 mm 0.00 in0.0 mm 0.00 in0.0 mm
05:04 AM 41.0°F5.0°C 40.2°F4.6°C 97% Calm Calm -- 30.27 in1025.1 mb 0.00 in0.0 mm 0.00 in0.0 mm 0.00 in0.0 mm
04:59 AM 41.0°F5.0°C 40.2°F4.6°C 97% Calm Calm -- 30.26 in1024.7 mb 0.00 in0.0 mm 0.00 in0.0 mm 0.00 in0.0 mm
04:54 AM 41.0°F5.0°C 40.2°F4.6°C 97% Calm Calm -- 30.27 in1025.1 mb 0.00 in0.0 mm 0.00 in0.0 mm 0.00 in0.0 mm
04:49 AM 41.0°F5.0°C 40.2°F4.6°C 97% Calm Calm -- 30.26 in1024.7 mb 0.00 in0.0 mm 0.00 in0.0 mm 0.00 in0.0 mm
04:44 AM 41.0°F5.0°C 39.9°F4.4°C 96% Calm Calm -- 30.26 in1024.7 mb 0.00 in0.0 mm 0.00 in0.0 mm 0.00 in0.0 mm
04:39 AM 41.0°F5.0°C 39.9°F4.4°C 96% Calm Calm -- 30.26 in1024.7 mb 0.00 in0.0 mm 0.00 in0.0 mm 0.00 in0.0 mm
04:34 AM 41.0°F5.0°C 39.9°F4.4°C 96% Calm Calm -- 30.26 in1024.7 mb 0.00 in0.0 mm 0.00 in0.0 mm 0.00 in0.0 mm
04:29 AM 41.0°F5.0°C 39.9°F4.4°C 96% Calm Calm -- 30.26 in1024.7 mb 0.00 in0.0 mm 0.00 in0.0 mm 0.00 in0.0 mm
04:24 AM 41.0°F5.0°C 39.9°F4.4°C 96% Calm Calm -- 30.26 in1024.7 mb 0.00 in0.0 mm 0.00 in0.0 mm 0.00 in0.0 mm
04:19 AM 41.0°F5.0°C 39.9°F4.4°C 96% Calm Calm -- 30.26 in1024.7 mb 0.00 in0.0 mm 0.00 in0.0 mm 0.00 in0.0 mm
04:14 AM 41.0°F5.0°C 39.9°F4.4°C 96% Calm Calm -- 30.26 in1024.7 mb 0.00 in0.0 mm 0.00 in0.0 mm 0.00 in0.0 mm
04:09 AM 41.0°F5.0°C 39.9°F4.4°C 96% Calm Calm -- 30.25 in1024.4 mb 0.00 in0.0 mm 0.00 in0.0 mm 0.00 in0.0 mm
04:04 AM 41.0°F5.0°C 39.9°F4.4°C 96% Calm Calm -- 30.25 in1024.4 mb 0.00 in0.0 mm 0.00 in0.0 mm 0.00 in0.0 mm
03:59 AM 41.0°F5.0°C 39.9°F4.4°C 96% Calm Calm -- 30.25 in1024.4 mb 0.00 in0.0 mm 0.00 in0.0 mm 0.00 in0.0 mm
03:54 AM 41.0°F5.0°C 39.9°F4.4°C 96% Calm Calm -- 30.25 in1024.4 mb 0.00 in0.0 mm 0.00 in0.0 mm 0.00 in0.0 mm
03:49 AM 41.0°F5.0°C 39.9°F4.4°C 96% Calm Calm -- 30.25 in1024.4 mb 0.00 in0.0 mm 0.00 in0.0 mm 0.00 in0.0 mm
03:44 AM 41.0°F5.0°C 39.9°F4.4°C 96% Calm Calm -- 30.25 in1024.4 mb 0.00 in0.0 mm 0.00 in0.0 mm 0.00 in0.0 mm
03:39 AM 41.0°F5.0°C 39.9°F4.4°C 96% Calm Calm -- 30.25 in1024.4 mb 0.00 in0.0 mm 0.00 in0.0 mm 0.00 in0.0 mm
03:34 AM 41.0°F5.0°C 39.9°F4.4°C 96% Calm Calm -- 30.25 in1024.4 mb 0.00 in0.0 mm 0.00 in0.0 mm 0.00 in0.0 mm
03:29 AM 41.0°F5.0°C 39.9°F4.4°C 96% Calm Calm -- 30.25 in1024.4 mb 0.00 in0.0 mm 0.00 in0.0 mm 0.00 in0.0 mm
03:24 AM 41.0°F5.0°C 39.9°F4.4°C 96% Calm Calm -- 30.25 in1024.4 mb 0.00 in0.0 mm 0.00 in0.0 mm 0.00 in0.0 mm
03:19 AM 42.0°F5.6°C 40.9°F4.9°C 96% Calm Calm -- 30.25 in1024.4 mb 0.00 in0.0 mm 0.00 in0.0 mm 0.00 in0.0 mm
03:14 AM 42.0°F5.6°C 40.9°F4.9°C 96% Calm Calm -- 30.25 in1024.4 mb 0.00 in0.0 mm 0.00 in0.0 mm 0.00 in0.0 mm
03:09 AM 42.0°F5.6°C 40.9°F4.9°C 96% Calm Calm -- 30.25 in1024.4 mb 0.00 in0.0 mm 0.00 in0.0 mm 0.00 in0.0 mm
03:04 AM 42.0°F5.6°C 40.9°F4.9°C 96% Calm Calm -- 30.25 in1024.4 mb 0.00 in0.0 mm 0.00 in0.0 mm 0.00 in0.0 mm
02:59 AM 42.0°F5.6°C 40.9°F4.9°C 96% Calm Calm -- 30.25 in1024.4 mb 0.00 in0.0 mm 0.00 in0.0 mm 0.00 in0.0 mm
02:54 AM 42.0°F5.6°C 40.9°F4.9°C 96% Calm Calm -- 30.25 in1024.4 mb 0.00 in0.0 mm 0.00 in0.0 mm 0.00 in0.0 mm
02:49 AM 42.0°F5.6°C 40.9°F4.9°C 96% Calm Calm -- 30.25 in1024.4 mb 0.00 in0.0 mm 0.00 in0.0 mm 0.00 in0.0 mm
02:44 AM 42.0°F5.6°C 40.9°F4.9°C 96% Calm Calm -- 30.25 in1024.4 mb 0.00 in0.0 mm 0.00 in0.0 mm 0.00 in0.0 mm
02:39 AM 42.0°F5.6°C 40.9°F4.9°C 96% Calm Calm -- 30.25 in1024.4 mb 0.00 in0.0 mm 0.00 in0.0 mm 0.00 in0.0 mm
02:34 AM 42.0°F5.6°C 40.7°F4.8°C 95% Calm Calm -- 30.25 in1024.4 mb 0.00 in0.0 mm 0.00 in0.0 mm 0.00 in0.0 mm
02:29 AM 42.0°F5.6°C 40.7°F4.8°C 95% Calm Calm -- 30.25 in1024.4 mb 0.00 in0.0 mm 0.00 in0.0 mm 0.00 in0.0 mm
02:24 AM 42.0°F5.6°C 40.7°F4.8°C 95% Calm Calm -- 30.25 in1024.4 mb 0.00 in0.0 mm 0.00 in0.0 mm 0.00 in0.0 mm
02:19 AM 42.0°F5.6°C 40.7°F4.8°C 95% Calm Calm -- 30.25 in1024.4 mb 0.00 in0.0 mm 0.00 in0.0 mm 0.00 in0.0 mm
02:14 AM 42.9°F6.1°C 41.6°F5.3°C 95% Calm Calm -- 30.25 in1024.4 mb 0.00 in0.0 mm 0.00 in0.0 mm 0.00 in0.0 mm
02:09 AM 43.0°F6.1°C 41.7°F5.4°C 95% Calm Calm -- 30.25 in1024.4 mb 0.00 in0.0 mm 0.00 in0.0 mm 0.00 in0.0 mm
02:04 AM 43.0°F6.1°C 41.7°F5.4°C 95% Calm Calm -- 30.25 in1024.4 mb 0.00 in0.0 mm 0.00 in0.0 mm 0.00 in0.0 mm
01:59 AM 43.0°F6.1°C 41.7°F5.4°C 95% Calm Calm -- 30.25 in1024.4 mb 0.00 in0.0 mm 0.00 in0.0 mm 0.00 in0.0 mm
01:54 AM 43.0°F6.1°C 41.7°F5.4°C 95% Calm Calm -- 30.25 in1024.4 mb 0.00 in0.0 mm 0.00 in0.0 mm 0.00 in0.0 mm
01:49 AM 43.0°F6.1°C 41.7°F5.4°C 95% Calm Calm -- 30.25 in1024.4 mb 0.00 in0.0 mm 0.00 in0.0 mm 0.00 in0.0 mm
01:44 AM 43.0°F6.1°C 41.7°F5.4°C 95% Calm Calm -- 30.25 in1024.4 mb 0.00 in0.0 mm 0.00 in0.0 mm 0.00 in0.0 mm
01:39 AM 43.0°F6.1°C 41.7°F5.4°C 95% Calm Calm -- 30.25 in1024.4 mb 0.00 in0.0 mm 0.00 in0.0 mm 0.00 in0.0 mm
01:34 AM 43.0°F6.1°C 41.7°F5.4°C 95% Calm Calm -- 30.25 in1024.4 mb 0.00 in0.0 mm 0.00 in0.0 mm 0.00 in0.0 mm
01:29 AM 43.0°F6.1°C 41.7°F5.4°C 95% Calm Calm -- 30.25 in1024.4 mb 0.00 in0.0 mm 0.00 in0.0 mm 0.00 in0.0 mm
01:24 AM 43.0°F6.1°C 41.7°F5.4°C 95% Calm Calm 0.5 mph0.8 kmh 30.25 in1024.4 mb 0.00 in0.0 mm 0.00 in0.0 mm 0.00 in0.0 mm
01:19 AM 44.0°F6.7°C 42.4°F5.8°C 94% Calm Calm -- 30.25 in1024.4 mb 0.00 in0.0 mm 0.00 in0.0 mm 0.00 in0.0 mm
01:14 AM 44.0°F6.7°C 42.4°F5.8°C 94% Calm Calm -- 30.25 in1024.4 mb 0.00 in0.0 mm 0.00 in0.0 mm 0.00 in0.0 mm
01:09 AM 44.0°F6.7°C 42.4°F5.8°C 94% Calm Calm -- 30.25 in1024.4 mb 0.00 in0.0 mm 0.00 in0.0 mm 0.00 in0.0 mm
01:04 AM 44.0°F6.7°C 42.4°F5.8°C 94% Calm Calm -- 30.25 in1024.4 mb 0.00 in0.0 mm 0.00 in0.0 mm 0.00 in0.0 mm
12:59 AM 44.0°F6.7°C 42.4°F5.8°C 94% Calm Calm -- 30.25 in1024.4 mb 0.00 in0.0 mm 0.00 in0.0 mm 0.00 in0.0 mm
12:54 AM 44.0°F6.7°C 42.4°F5.8°C 94% Calm Calm -- 30.25 in1024.4 mb 0.00 in0.0 mm 0.00 in0.0 mm 0.00 in0.0 mm
12:49 AM 44.0°F6.7°C 42.4°F5.8°C 94% Calm Calm -- 30.25 in1024.4 mb 0.00 in0.0 mm 0.00 in0.0 mm 0.00 in0.0 mm
12:44 AM 44.0°F6.7°C 42.4°F5.8°C 94% Calm Calm -- 30.25 in1024.4 mb 0.00 in0.0 mm 0.00 in0.0 mm 0.00 in0.0 mm
12:39 AM 44.8°F7.1°C 43.2°F6.2°C 94% Calm Calm -- 30.25 in1024.4 mb 0.00 in0.0 mm 0.00 in0.0 mm 0.00 in0.0 mm
12:34 AM 45.0°F7.2°C 43.4°F6.3°C 94% Calm Calm -- 30.25 in1024.4 mb 0.00 in0.0 mm 0.00 in0.0 mm 0.00 in0.0 mm
12:29 AM 45.0°F7.2°C 43.4°F6.3°C 94% Calm Calm -- 30.25 in1024.4 mb 0.00 in0.0 mm 0.00 in0.0 mm 0.00 in0.0 mm
12:24 AM 45.0°F7.2°C 43.4°F6.3°C 94% Calm Calm -- 30.25 in1024.4 mb 0.00 in0.0 mm 0.00 in0.0 mm 0.00 in0.0 mm
12:19 AM 45.0°F7.2°C 43.4°F6.3°C 94% Calm Calm -- 30.25 in1024.4 mb 0.00 in0.0 mm 0.00 in0.0 mm 0.00 in0.0 mm
12:14 AM 45.0°F7.2°C 43.1°F6.2°C 93% Calm Calm -- 30.25 in1024.4 mb 0.00 in0.0 mm 0.00 in0.0 mm 0.00 in0.0 mm
12:09 AM 45.0°F7.2°C 43.1°F6.2°C 93% Calm Calm -- 30.25 in1024.4 mb 0.00 in0.0 mm 0.00 in0.0 mm 0.00 in0.0 mm
12:04 AM 45.0°F7.2°C 43.1°F6.2°C 93% 0.1 mph ENE0.2 kmh ENE 0.3 mph0.5 kmh 30.25 in1024.4 mb 0.00 in0.0 mm 0.00 in0.0 mm 0.00 in0.0 mm